Time;durP1;ratioP1;P1;durP2;ratioP2;P2;SDS_P1;SDS_P2;PMS_P1;PMS_P2;Temp;Humidity;BMP_temperature;BMP_pressure;BME280_temperature;BME280_humidity;BME280_pressure;Samples;Min_cycle;Max_cycle;Signal;HPM_P1;HPM_P2
2022/12/06 00:01:31;;;;;;;81.67;43.27;;;;;;;3.97;100.00;100730.48;1726468;83;20203;-75
2022/12/06 00:04:03;;;;;;;85.80;45.70;;;;;;;3.98;100.00;100710.59;1726709;81;21027;-75
2022/12/06 00:06:34;;;;;;;77.13;42.10;;;;;;;3.96;100.00;100696.76;1726826;83;21110;-75
2022/12/06 00:09:05;;;;;;;81.17;44.10;;;;;;;3.96;100.00;100695.46;1726314;83;21493;-75
2022/12/06 00:11:33;;;;;;;;;;;;;;;3.96;100.00;100698.95;1729282;83;21016;-75
2022/12/06 00:14:05;;;;;;;83.77;42.90;;;;;;;3.98;100.00;100697.63;1726730;83;20160;-75
2022/12/06 00:16:35;;;;;;;73.30;41.40;;;;;;;3.97;100.00;100692.02;1726460;83;21072;-75
2022/12/06 00:19:03;;;;;;;75.53;41.23;;;;;;;3.97;100.00;100690.28;1727136;83;21281;-75
2022/12/06 00:21:34;;;;;;;80.23;42.93;;;;;;;3.97;100.00;100686.83;1726440;83;21502;-75
2022/12/06 00:24:05;;;;;;;80.53;43.35;;;;;;;3.98;100.00;100682.06;1726860;81;21087;-75
2022/12/06 00:26:36;;;;;;;85.87;46.20;;;;;;;3.98;100.00;100688.10;1725712;83;21020;-75
2022/12/06 00:29:09;;;;;;;87.53;46.83;;;;;;;3.98;100.00;100698.48;1726711;83;21013;-75
2022/12/06 00:31:37;;;;;;;85.30;45.87;;;;;;;3.96;100.00;100698.95;1726660;83;21074;-75
2022/12/06 00:34:04;;;;;;;136.67;70.43;;;;;;;3.96;100.00;100700.65;1726567;83;21004;-75
2022/12/06 00:36:35;;;;;;;120.87;61.13;;;;;;;3.95;100.00;100701.09;1726545;83;21075;-75
2022/12/06 00:39:07;;;;;;;115.40;55.77;;;;;;;3.95;100.00;100709.31;1726788;83;20917;-80
2022/12/06 00:41:34;;;;;;;97.33;50.33;;;;;;;3.96;100.00;100711.02;1727112;83;21231;-75
2022/12/06 00:44:01;;;;;;;87.27;45.80;;;;;;;3.97;100.00;100721.41;1726742;83;22154;-75
2022/12/06 00:46:31;;;;;;;80.57;43.53;;;;;;;3.96;100.00;100728.77;1726980;83;21467;-74
2022/12/06 00:49:00;;;;;;;79.27;42.98;;;;;;;3.96;100.00;100727.47;1727094;83;21067;-75
2022/12/06 00:51:29;;;;;;;86.27;44.20;;;;;;;3.98;100.00;100727.00;1726816;83;21059;-75
2022/12/06 00:53:57;;;;;;;102.83;56.63;;;;;;;3.98;100.00;100721.82;1726672;83;21052;-74
2022/12/06 00:56:26;;;;;;;102.30;57.83;;;;;;;3.98;100.00;100720.52;1726923;83;21351;-75
2022/12/06 00:58:53;;;;;;;103.40;51.63;;;;;;;3.97;100.00;100729.19;1726569;83;21012;-75
2022/12/06 01:01:26;;;;;;;87.23;46.30;;;;;;;3.98;100.00;100729.59;1726974;83;21016;-75
2022/12/06 01:03:59;;;;;;;81.10;43.70;;;;;;;3.95;100.00;100724.43;1726697;83;21280;-75
2022/12/06 01:06:29;;;;;;;84.27;44.90;;;;;;;3.94;100.00;100721.42;1726772;83;21021;-74
2022/12/06 01:08:57;;;;;;;;;;;;;;;3.94;100.00;100721.42;1729345;83;21783;-75
2022/12/06 01:11:26;;;;;;;80.57;42.17;;;;;;;3.96;100.00;100723.98;1726860;83;20168;-74
2022/12/06 01:13:54;;;;;;;80.87;44.00;;;;;;;3.93;100.00;100716.23;1726745;83;21470;-75
2022/12/06 01:16:28;;;;;;;79.17;42.93;;;;;;;3.93;100.00;100719.67;1726983;83;21079;-75
2022/12/06 01:18:59;;;;;;;71.47;42.17;;;;;;;3.90;100.00;100706.73;1726864;83;21064;-75
2022/12/06 01:21:27;;;;;;;80.53;44.53;;;;;;;3.90;100.00;100703.28;1726742;83;21803;-75
2022/12/06 01:23:54;;;;;;;80.53;43.37;;;;;;;3.92;100.00;100693.77;1709710;83;21559;-74
2022/12/06 01:26:31;;;;;;;79.40;42.87;;;;;;;3.93;100.00;100691.59;1723716;83;21040;-75
2022/12/06 01:28:59;;;;;;;65.53;38.30;;;;;;;3.95;100.00;100687.27;1726822;83;21076;-75
2022/12/06 01:31:27;;;;;;;69.47;38.63;;;;;;;3.97;100.00;100673.42;1726758;83;21510;-75
2022/12/06 01:33:54;;;;;;;74.80;41.73;;;;;;;4.00;100.00;100676.00;1726747;83;21534;-75
2022/12/06 01:36:25;;;;;;;69.27;39.40;;;;;;;4.00;100.00;100662.17;1717727;83;21110;-75
2022/12/06 01:38:57;;;;;;;76.07;40.83;;;;;;;4.02;100.00;100657.84;1712511;82;21510;-75
2022/12/06 01:41:26;;;;;;;74.83;41.80;;;;;;;4.03;100.00;100643.55;1712367;83;21087;-75
2022/12/06 01:43:55;;;;;;;77.10;42.33;;;;;;;4.03;100.00;100638.80;1712283;83;21035;-75
2022/12/06 01:46:39;;;;;;;78.03;43.33;;;;;;;4.01;100.00;100633.61;1712310;82;21506;-74
2022/12/06 01:49:14;;;;;;;75.30;41.10;;;;;;;4.01;100.00;100635.35;1711832;83;21056;-75
2022/12/06 01:51:56;;;;;;;77.60;42.77;;;;;;;4.00;100.00;100628.02;1712334;82;20969;-75
2022/12/06 01:54:24;;;;;;;76.60;41.17;;;;;;;4.00;100.00;100620.67;1712323;82;21078;-75
2022/12/06 01:56:52;;;;;;;79.30;42.73;;;;;;;4.00;100.00;100623.27;1712504;82;21009;-74
2022/12/06 01:59:20;;;;;;;76.00;41.33;;;;;;;3.97;100.00;100617.66;1712346;82;21128;-74
2022/12/06 02:01:47;;;;;;;77.30;42.70;;;;;;;3.97;100.00;100621.99;1712603;82;21057;-75
2022/12/06 02:04:16;;;;;;;83.77;46.83;;;;;;;3.96;100.00;100618.55;1712242;83;21020;-74
2022/12/06 02:06:45;;;;;;;85.33;46.97;;;;;;;3.93;100.00;100617.23;1712552;82;21032;-74
2022/12/06 02:09:13;;;;;;;72.50;41.87;;;;;;;3.90;100.00;100619.00;1712312;83;21031;-75
2022/12/06 02:11:42;;;;;;;76.27;42.77;;;;;;;3.92;100.00;100612.08;1712570;82;21951;-74
2022/12/06 02:14:13;;;;;;;98.97;48.60;;;;;;;3.94;100.00;100611.64;1712435;82;21000;-75
2022/12/06 02:17:22;;;;;;;83.97;43.67;;;;;;;3.93;100.00;100601.68;1711910;83;21016;-75
2022/12/06 02:20:03;;;;;;;69.13;38.93;;;;;;;3.95;100.00;100603.84;1712430;83;20996;-74
2022/12/06 02:22:41;;;;;;;70.40;37.37;;;;;;;3.96;100.00;100603.39;1712278;83;21043;-74
2022/12/06 02:25:26;;;;;;;65.50;36.17;;;;;;;3.97;100.00;100609.02;1712397;83;21110;-74
2022/12/06 02:28:27;;;;;;;66.27;36.23;;;;;;;3.96;100.00;100605.58;1712499;82;21020;-74
2022/12/06 02:31:05;;;;;;;63.40;35.83;;;;;;;3.98;100.00;100602.95;1712377;83;21481;-74
2022/12/06 02:33:49;;;;;;;68.77;37.50;;;;;;;3.96;100.00;100606.87;1712487;82;21327;-74
2022/12/06 02:36:25;;;;;;;64.87;36.60;;;;;;;3.95;100.00;100605.12;1721300;82;21019;-74
2022/12/06 02:38:57;;;;;;;66.43;35.67;;;;;;;3.97;100.00;100602.55;1732258;82;21124;-74
2022/12/06 02:41:41;;;;;;;62.37;34.97;;;;;;;3.96;100.00;100596.50;1730978;82;21047;-75
2022/12/06 02:44:13;;;;;;;64.23;33.03;;;;;;;3.96;100.00;100596.50;1732513;82;21020;-75
2022/12/06 02:46:42;;;;;;;62.20;33.37;;;;;;;3.96;100.00;100590.02;1729843;82;21573;-75
2022/12/06 02:49:12;;;;;;;59.17;33.70;;;;;;;3.94;100.00;100590.45;1732864;82;21087;-75
2022/12/06 02:51:40;;;;;;;59.48;33.58;;;;;;;3.94;100.00;100583.12;1731534;81;21131;-75
2022/12/06 02:54:09;;;;;;;64.33;35.47;;;;;;;3.93;100.00;100586.56;1709497;82;21578;-74
2022/12/06 02:56:36;;;;;;;69.13;36.67;;;;;;;3.93;100.00;100590.01;1730939;82;21020;-75
2022/12/06 02:59:04;;;;;;;70.67;38.10;;;;;;;3.91;100.00;100587.89;1731346;82;21079;-75
2022/12/06 03:01:34;;;;;;;65.43;36.83;;;;;;;3.89;100.00;100587.03;1730962;82;21010;-76
2022/12/06 03:04:33;;;;;;;67.03;37.53;;;;;;;3.88;100.00;100585.73;1731376;82;21868;-75
2022/12/06 03:07:29;;;;;;;69.57;39.10;;;;;;;3.88;100.00;100582.72;1730915;82;20989;-75
2022/12/06 03:10:47;;;;;;;67.87;37.37;;;;;;;3.90;100.00;100591.77;1731238;82;21442;-75
2022/12/06 03:13:40;;;;;;;68.57;37.87;;;;;;;3.90;100.00;100587.88;1730235;82;21543;-75
2022/12/06 03:16:18;;;;;;;73.00;41.20;;;;;;;3.89;100.00;100588.77;1730748;82;21393;-75
2022/12/06 03:19:07;;;;;;;79.13;44.53;;;;;;;3.86;100.00;100576.68;1729978;82;21193;-75
2022/12/06 03:21:45;;;;;;;71.60;39.10;;;;;;;3.84;100.00;100573.22;1727507;82;21032;-75
2022/12/06 03:24:15;;;;;;;69.77;38.60;;;;;;;3.86;100.00;100569.34;1717164;82;21040;-75
2022/12/06 03:26:47;;;;;;;71.93;39.87;;;;;;;3.85;100.00;100565.00;1731157;82;21028;-75
2022/12/06 03:29:18;;;;;;;68.87;38.37;;;;;;;3.86;100.00;100556.38;1731202;82;21071;-75
2022/12/06 03:31:46;;;;;;;67.70;37.53;;;;;;;3.86;100.00;100551.19;1731054;82;21116;-75
2022/12/06 03:34:23;;;;;;;65.57;35.70;;;;;;;3.87;100.00;100545.98;1731236;82;21056;-75
2022/12/06 03:36:52;;;;;;;66.80;36.70;;;;;;;3.90;100.00;100555.47;1727439;82;21032;-74
2022/12/06 03:39:30;;;;;;;67.57;36.60;;;;;;;3.90;100.00;100564.55;1724942;83;20985;-75
2022/12/06 03:41:58;;;;;;;67.13;36.00;;;;;;;3.90;100.00;100567.14;1724513;83;21001;-75
2022/12/06 03:44:26;;;;;;;60.90;35.20;;;;;;;3.90;100.00;100565.84;1724966;83;21237;-75
2022/12/06 03:47:04;;;;;;;65.00;33.90;;;;;;;3.91;100.00;100558.50;1725145;83;20941;-75
2022/12/06 03:49:36;;;;;;;57.93;32.57;;;;;;;3.91;100.00;100558.06;1724518;83;21073;-75
2022/12/06 03:52:03;;;;;;;56.93;31.77;;;;;;;3.93;100.00;100560.62;1724988;83;21024;-75
2022/12/06 03:54:31;;;;;;;61.03;33.77;;;;;;;3.92;100.00;100558.48;1725030;83;21530;-75
2022/12/06 03:56:58;;;;;;;60.30;32.90;;;;;;;3.94;100.00;100552.00;1724895;82;21303;-75
2022/12/06 03:59:25;;;;;;;58.87;32.17;;;;;;;3.95;100.00;100555.86;1724763;83;21471;-75
2022/12/06 04:01:52;;;;;;;56.47;32.53;;;;;;;3.96;100.00;100560.19;1725001;83;21553;-75
2022/12/06 04:04:19;;;;;;;57.63;31.67;;;;;;;3.97;100.00;100561.91;1725009;83;21025;-75
2022/12/06 04:06:46;;;;;;;51.43;29.20;;;;;;;3.97;100.00;100563.20;1725113;83;21084;-76
2022/12/06 04:11:58;;;;;;;43.67;25.77;;;;;;;4.00;100.00;100553.23;1724968;83;20937;-75
2022/12/06 04:14:31;;;;;;;40.53;24.00;;;;;;;4.00;100.00;100550.65;1724967;83;21021;-75
2022/12/06 04:19:40;;;;;;;35.47;21.37;;;;;;;4.02;100.00;100551.50;1725005;83;21080;-75
2022/12/06 04:24:52;;;;;;;23.37;13.93;;;;;;;4.06;100.00;100543.25;1725055;83;20941;-75
2022/12/06 04:38:42;;;;;;;12.00;7.97;;;;;;;4.10;99.88;100546.23;1724866;83;20944;-74
2022/12/06 04:43:40;;;;;;;13.53;8.83;;;;;;;4.10;99.90;100545.82;1724991;83;21025;-74
2022/12/06 04:43:43;;;;;;;13.67;8.80;;;;;;;4.09;99.74;100545.37;1722215;83;21025;-74
2022/12/06 04:46:13;;;;;;;17.55;11.15;;;;;;;4.10;99.78;100539.75;1725338;83;21505;-75
2022/12/06 04:48:41;;;;;;;23.55;15.48;;;;;;;4.08;99.72;100533.73;1724915;83;21127;-75
2022/12/06 04:51:11;;;;;;;26.80;15.77;;;;;;;4.09;99.73;100532.84;1725102;83;21477;-74
2022/12/06 04:53:36;;;;;;;32.27;18.97;;;;;;;4.06;99.66;100533.73;1724876;83;21053;-74
2022/12/06 04:56:04;;;;;;;38.60;23.77;;;;;;;4.05;99.62;100534.62;1725247;83;21069;-75
2022/12/06 04:58:31;;;;;;;38.07;22.53;;;;;;;4.04;99.60;100536.77;1724908;83;21032;-75
2022/12/06 05:00:58;;;;;;;36.23;19.23;;;;;;;3.99;99.51;100536.83;1725139;83;21206;-75
2022/12/06 05:03:25;;;;;;;30.00;19.03;;;;;;;3.98;99.59;100539.41;1724951;83;20997;-75
2022/12/06 05:05:52;;;;;;;38.87;24.17;;;;;;;3.96;99.58;100537.27;1725191;83;21075;-75
2022/12/06 05:08:19;;;;;;;42.90;24.50;;;;;;;3.96;99.69;100534.26;1724926;83;20997;-75
2022/12/06 05:10:48;;;;;;;49.60;25.40;;;;;;;3.96;99.70;100535.55;1725212;83;21099;-75
2022/12/06 05:13:16;;;;;;;48.03;26.10;;;;;;;3.95;99.69;100544.19;1724910;83;21110;-75
2022/12/06 05:15:53;;;;;;;48.43;24.90;;;;;;;3.96;99.82;100542.45;1725044;83;21079;-75
2022/12/06 05:18:21;;;;;;;48.73;25.97;;;;;;;3.98;99.93;100542.86;1724767;83;21017;-75
2022/12/06 05:20:49;;;;;;;47.63;24.30;;;;;;;3.97;99.81;100531.22;1725208;83;21036;-75
2022/12/06 05:23:17;;;;;;;43.10;24.70;;;;;;;3.97;99.78;100533.81;1724864;83;21040;-78
2022/12/06 05:25:44;;;;;;;39.60;23.70;;;;;;;3.94;99.71;100541.63;1725158;83;21109;-74
2022/12/06 05:28:11;;;;;;;43.70;25.60;;;;;;;3.93;99.60;100545.06;1724891;83;21060;-75
2022/12/06 05:30:38;;;;;;;47.43;26.80;;;;;;;3.89;99.60;100533.02;1725106;83;21068;-75
2022/12/06 05:33:05;;;;;;;47.30;27.40;;;;;;;3.88;99.76;100535.16;1724984;83;20945;-75
2022/12/06 05:35:32;;;;;;;49.07;27.37;;;;;;;3.89;99.90;100530.42;1724839;83;21590;-74
2022/12/06 05:37:59;;;;;;;48.63;27.27;;;;;;;3.88;99.92;100521.78;1725133;83;21088;-75
2022/12/06 05:40:26;;;;;;;48.77;28.03;;;;;;;3.88;99.91;100523.08;1725122;83;21242;-74
2022/12/06 05:42:53;;;;;;;49.73;28.50;;;;;;;3.86;99.75;100523.96;1725264;83;21032;-74
2022/12/06 05:45:20;;;;;;;63.83;33.23;;;;;;;3.79;99.67;100529.61;1725284;83;21519;-75
2022/12/06 05:47:47;;;;;;;76.57;44.50;;;;;;;3.78;99.85;100524.02;1725301;83;21482;-75
2022/12/06 05:50:14;;;;;;;125.00;66.57;;;;;;;3.78;99.98;100518.83;1725248;83;21134;-75
2022/12/06 05:52:41;;;;;;;110.10;62.17;;;;;;;3.79;100.00;100512.76;1725614;83;20906;-75
2022/12/06 05:55:08;;;;;;;61.40;34.57;;;;;;;3.80;100.00;100508.02;1725421;83;21032;-75
2022/12/06 05:57:35;;;;;;;59.53;32.30;;;;;;;3.83;100.00;100513.62;1725238;83;21032;-75
2022/12/06 06:00:04;;;;;;;66.23;36.07;;;;;;;3.82;100.00;100511.87;1725646;83;21734;-75
2022/12/06 06:02:32;;;;;;;62.73;34.83;;;;;;;3.83;100.00;100511.87;1725399;83;22162;-75
2022/12/06 06:05:00;;;;;;;63.73;36.13;;;;;;;3.82;100.00;100516.62;1725577;83;21005;-75
2022/12/06 06:07:28;;;;;;;51.07;30.17;;;;;;;3.80;100.00;100520.54;1725290;83;21029;-75
2022/12/06 06:09:55;;;;;;;36.93;20.63;;;;;;;3.79;100.00;100511.02;1725719;83;21056;-75
2022/12/06 06:12:22;;;;;;;32.27;19.97;;;;;;;3.77;99.99;100508.91;1725378;83;21581;-73
2022/12/06 06:14:49;;;;;;;30.10;19.40;;;;;;;3.78;100.00;100508.45;1734474;81;21114;-73
2022/12/06 06:17:16;;;;;;;40.57;20.33;;;;;;;3.80;100.00;100505.42;1753901;81;21044;-72
2022/12/06 06:19:43;;;;;;;19.43;11.87;;;;;;;3.82;100.00;100511.44;1753856;81;21466;-72
2022/12/06 06:22:10;;;;;;;39.97;18.80;;;;;;;3.80;99.95;100507.58;1739849;81;21076;-73
2022/12/06 06:24:39;;;;;;;19.47;11.40;;;;;;;3.82;99.91;100507.55;1753509;81;21060;-73
2022/12/06 06:27:06;;;;;;;63.13;30.00;;;;;;;3.83;99.78;100507.98;1748758;81;21123;-72
2022/12/06 06:29:33;;;;;;;38.47;20.33;;;;;;;3.82;99.76;100503.66;1747204;81;20936;-72
2022/12/06 06:32:00;;;;;;;22.17;13.50;;;;;;;3.82;99.58;100502.36;1751816;81;21041;-72
2022/12/06 06:34:27;;;;;;;16.47;9.13;;;;;;;3.79;99.64;100502.39;1745103;81;21022;-79
2022/12/06 06:36:54;;;;;;;15.70;9.57;;;;;;;3.78;99.55;100505.42;1732568;81;21024;-70
2022/12/06 06:39:21;;;;;;;12.47;8.70;;;;;;;3.77;99.48;100501.13;1754322;81;21139;-72
2022/12/06 06:41:48;;;;;;;12.93;9.13;;;;;;;3.76;99.48;100503.71;1753606;81;20996;-72
2022/12/06 06:44:15;;;;;;;10.57;7.63;;;;;;;3.74;99.48;100501.15;1754185;81;21036;-72
2022/12/06 06:46:42;;;;;;;11.10;7.23;;;;;;;3.72;99.33;100510.66;1753638;81;21579;-72
2022/12/06 06:49:10;;;;;;;11.77;7.90;;;;;;;3.72;99.56;100505.92;1754685;81;21264;-72
2022/12/06 06:51:37;;;;;;;12.03;7.87;;;;;;;3.72;99.52;100500.73;1753763;81;21928;-73
2022/12/06 06:54:05;;;;;;;13.67;9.00;;;;;;;3.70;99.57;100499.44;1742849;81;21052;-74
2022/12/06 06:56:32;;;;;;;13.20;9.60;;;;;;;3.68;99.40;100502.46;1754291;81;21454;-75
2022/12/06 06:58:59;;;;;;;12.33;8.10;;;;;;;3.63;99.42;100500.78;1752780;81;21485;-74
2022/12/06 07:01:26;;;;;;;11.23;7.70;;;;;;;3.58;99.41;100508.16;1754410;81;21032;-73
2022/12/06 07:03:53;;;;;;;10.03;7.23;;;;;;;3.57;99.37;100512.05;1754280;81;21133;-74
2022/12/06 07:06:21;;;;;;;9.00;6.87;;;;;;;3.53;99.40;100512.95;1754162;81;21076;-73
2022/12/06 07:08:48;;;;;;;9.30;6.53;;;;;;;3.50;99.38;100510.38;1754221;81;21032;-73
2022/12/06 07:11:15;;;;;;;9.13;6.50;;;;;;;3.48;99.48;100509.08;1753661;81;21299;-81
2022/12/06 07:13:43;;;;;;;9.70;6.73;;;;;;;3.47;99.44;100511.27;1754217;81;21283;-80
2022/12/06 07:16:14;;;;;;;9.43;6.70;;;;;;;3.42;99.16;100509.13;1729542;81;21946;-73
2022/12/06 07:18:42;;;;;;;9.80;6.97;;;;;;;3.38;99.16;100510.44;1743816;81;21079;-71
2022/12/06 07:21:12;;;;;;;8.43;6.57;;;;;;;3.33;99.26;100513.08;1746322;81;21068;-72
2022/12/06 07:23:40;;;;;;;10.50;7.10;;;;;;;3.28;99.28;100510.50;1754793;81;20989;-72
2022/12/06 07:26:18;;;;;;;8.50;6.53;;;;;;;3.22;99.18;100514.43;1752239;81;21566;-82
2022/12/06 07:28:47;;;;;;;8.63;6.83;;;;;;;3.17;99.38;100513.59;1732458;81;21919;-72
2022/12/06 07:31:22;;;;;;;9.70;6.73;;;;;;;3.09;99.37;100514.91;1729047;81;21611;-72
2022/12/06 07:33:55;;;;;;;10.00;6.60;;;;;;;3.03;99.15;100519.27;1754042;81;21012;-72
2022/12/06 07:36:24;;;;;;;9.33;7.13;;;;;;;2.95;99.17;100514.55;1749853;81;21311;-72
2022/12/06 07:38:54;;;;;;;11.00;7.70;;;;;;;2.88;99.11;100514.99;1754036;81;21392;-72
2022/12/06 07:46:58;;;;;;;11.77;7.30;;;;;;;2.64;99.16;100518.11;1754231;81;21076;-72
2022/12/06 07:49:25;;;;;;;10.73;7.60;;;;;;;2.59;99.34;100514.66;1743948;81;21438;-72
2022/12/06 07:51:54;;;;;;;9.13;7.47;;;;;;;2.57;99.64;100515.09;1753599;81;21076;-73
2022/12/06 07:54:22;;;;;;;10.17;7.40;;;;;;;2.57;99.76;100516.83;1754415;81;21957;-73
2022/12/06 07:56:49;;;;;;;11.70;7.20;;;;;;;2.56;99.78;100515.11;1753546;81;21001;-72
2022/12/06 07:59:17;;;;;;;8.90;6.60;;;;;;;2.57;100.00;100518.12;1754228;81;21427;-72
2022/12/06 08:01:44;;;;;;;10.00;7.30;;;;;;;2.56;100.00;100518.99;1754342;81;21025;-72
2022/12/06 08:04:11;;;;;;;9.83;7.13;;;;;;;2.56;99.89;100521.14;1753980;81;21832;-72
2022/12/06 08:06:39;;;;;;;10.63;7.67;;;;;;;2.52;99.79;100522.44;1754040;81;21159;-72
2022/12/06 08:09:07;;;;;;;14.87;9.37;;;;;;;2.47;99.65;100523.77;1753970;81;21017;-73
2022/12/06 08:11:35;;;;;;;18.93;11.70;;;;;;;2.43;99.69;100517.70;1754106;81;21510;-72
2022/12/06 08:14:03;;;;;;;22.07;13.47;;;;;;;2.42;99.82;100512.55;1754384;81;21545;-72
2022/12/06 08:16:31;;;;;;;22.37;12.80;;;;;;;2.40;99.83;100509.95;1735132;81;21132;-72
2022/12/06 08:18:57;;;;;;;20.17;12.90;;;;;;;2.41;100.00;100518.58;1754167;81;21949;-72
2022/12/06 08:21:25;;;;;;;13.57;10.10;;;;;;;2.40;100.00;100519.01;1753469;81;21075;-72
2022/12/06 08:23:54;;;;;;;12.77;8.73;;;;;;;2.34;99.68;100511.27;1754418;81;21016;-72
2022/12/06 08:26:22;;;;;;;12.27;9.20;;;;;;;2.29;99.75;100511.70;1742335;81;21028;-72
2022/12/06 08:28:49;;;;;;;11.10;7.90;;;;;;;2.24;99.55;100517.31;1754550;81;21123;-72
2022/12/06 08:31:22;;;;;;;12.17;8.23;;;;;;;2.19;99.64;100519.92;1749402;81;21303;-72
2022/12/06 08:33:49;;;;;;;12.47;9.43;;;;;;;2.20;100.00;100524.66;1754244;81;21107;-72
2022/12/06 08:36:22;;;;;;;10.67;7.80;;;;;;;2.22;100.00;100531.55;1734558;81;21087;-72
2022/12/06 08:38:51;;;;;;;10.93;7.73;;;;;;;2.20;100.00;100528.53;1730684;81;21420;-72
2022/12/06 08:44:06;;;;;;;11.57;7.57;;;;;;;2.13;99.73;100529.39;1754019;81;21130;-72
2022/12/06 08:46:34;;;;;;;9.77;6.87;;;;;;;2.07;99.81;100521.64;1753455;81;21032;-73
2022/12/06 08:49:01;;;;;;;9.90;7.37;;;;;;;2.06;99.83;100523.37;1746624;81;22155;-72
2022/12/06 08:51:30;;;;;;;11.83;8.40;;;;;;;2.01;99.61;100513.02;1754287;81;21076;-72
2022/12/06 08:53:57;;;;;;;11.90;7.30;;;;;;;1.97;99.74;100507.44;1753088;81;21100;-72
2022/12/06 08:56:25;;;;;;;9.20;6.80;;;;;;;1.97;99.82;100510.45;1754165;81;21222;-72
2022/12/06 08:58:54;;;;;;;11.50;8.37;;;;;;;1.97;99.94;100510.45;1753624;81;21109;-72
2022/12/06 09:01:25;;;;;;;10.20;7.33;;;;;;;1.97;99.91;100514.33;1753628;81;21051;-72
2022/12/06 09:03:53;;;;;;;9.37;6.83;;;;;;;1.97;100.00;100515.63;1753314;81;21060;-72
2022/12/06 09:06:21;;;;;;;11.20;7.13;;;;;;;1.93;99.76;100517.77;1753365;81;21032;-72
2022/12/06 09:08:48;;;;;;;12.43;9.33;;;;;;;1.91;99.75;100520.77;1754392;81;21057;-72
2022/12/06 09:11:17;;;;;;;12.37;9.60;;;;;;;1.90;99.69;100517.77;1753515;81;21044;-72
2022/12/06 09:13:45;;;;;;;12.50;8.70;;;;;;;1.85;99.53;100508.70;1752192;81;21037;-72
2022/12/06 09:16:16;;;;;;;10.70;8.03;;;;;;;1.83;99.75;100507.87;1753512;81;20944;-72
2022/12/06 09:18:45;;;;;;;11.80;8.43;;;;;;;1.83;99.74;100507.87;1753625;81;21025;-72
2022/12/06 09:21:17;;;;;;;12.07;8.80;;;;;;;1.82;99.99;100512.59;1753717;81;21840;-72
2022/12/06 09:23:44;;;;;;;11.07;8.13;;;;;;;1.87;100.00;100519.06;1754027;81;21029;-72
2022/12/06 09:26:12;;;;;;;12.43;8.03;;;;;;;1.89;100.00;100526.39;1743604;81;21052;-72
2022/12/06 09:28:42;;;;;;;14.07;7.77;;;;;;;1.91;100.00;100527.23;1753720;81;21032;-72
2022/12/06 09:31:09;;;;;;;10.93;7.17;;;;;;;1.87;99.89;100518.63;1753467;81;21403;-71
2022/12/06 09:33:37;;;;;;;13.60;7.53;;;;;;;1.88;100.00;100520.77;1753706;81;21129;-72
2022/12/06 09:36:10;;;;;;;15.37;8.80;;;;;;;1.84;99.75;100513.89;1753536;81;21024;-72
2022/12/06 09:38:39;;;;;;;14.33;8.27;;;;;;;1.79;99.69;100499.66;1753268;81;21709;-71
2022/12/06 09:41:43;;;;;;;10.27;7.00;;;;;;;1.79;99.89;100497.94;1753482;81;21041;-72
2022/12/06 09:44:55;;;;;;;13.07;7.63;;;;;;;1.85;100.00;100491.91;1753902;81;21047;-71
2022/12/06 09:47:34;;;;;;;10.57;7.60;;;;;;;1.90;100.00;100487.60;1753424;81;21377;-74
2022/12/06 09:50:22;;;;;;;10.87;7.20;;;;;;;1.98;100.00;100487.17;1753589;81;20952;-72
2022/12/06 09:53:04;;;;;;;10.43;7.33;;;;;;;2.02;100.00;100486.73;1739209;81;21634;-72
2022/12/06 09:55:57;;;;;;;10.73;6.73;;;;;;;2.05;100.00;100483.28;1754054;81;21413;-72
2022/12/06 09:59:03;;;;;;;11.83;7.50;;;;;;;2.06;100.00;100478.13;1754085;81;21033;-72
2022/12/06 10:02:06;;;;;;;11.23;7.70;;;;;;;2.08;100.00;100469.94;1746754;81;21820;-72
2022/12/06 10:05:12;;;;;;;10.33;6.23;;;;;;;2.11;100.00;100460.89;1753533;81;21087;-73
2022/12/06 10:08:08;;;;;;;9.77;7.30;;;;;;;2.14;100.00;100452.27;1753946;81;21333;-72
2022/12/06 10:11:04;;;;;;;12.13;8.07;;;;;;;2.21;100.00;100447.05;1751947;81;21068;-73
2022/12/06 10:13:58;;;;;;;8.77;6.30;;;;;;;2.26;100.00;100448.34;1753410;81;21036;-73
2022/12/06 10:16:54;;;;;;;11.03;6.90;;;;;;;2.32;100.00;100450.91;1752706;81;21550;-73
2022/12/06 10:19:48;;;;;;;11.63;7.27;;;;;;;2.35;100.00;100446.16;1737711;81;22101;-73
2022/12/06 10:22:37;;;;;;;16.60;9.67;;;;;;;2.41;100.00;100445.73;1681306;84;21070;-73
2022/12/06 10:25:18;;;;;;;20.00;12.07;;;;;;;2.47;100.00;100444.85;1702687;83;21036;-73
2022/12/06 10:27:50;;;;;;;18.17;10.60;;;;;;;2.50;100.00;100447.86;1681285;83;21079;-72
2022/12/06 10:30:19;;;;;;;18.43;11.37;;;;;;;2.53;100.00;100446.56;1681825;83;21208;-73
2022/12/06 10:33:17;;;;;;;17.00;10.73;;;;;;;2.55;100.00;100443.50;1682018;83;21052;-73
2022/12/06 10:36:05;;;;;;;15.40;10.77;;;;;;;2.55;100.00;100439.22;1679078;84;21603;-73
2022/12/06 10:38:50;;;;;;;19.20;12.17;;;;;;;2.56;100.00;100443.95;1687078;84;21694;-72
2022/12/06 10:41:35;;;;;;;14.73;10.00;;;;;;;2.55;100.00;100443.50;1694841;84;21113;-73
2022/12/06 10:44:29;;;;;;;16.73;8.63;;;;;;;2.56;100.00;100437.48;1679913;84;21828;-73
2022/12/06 10:47:22;;;;;;;9.80;7.10;;;;;;;2.60;100.00;100442.62;1697679;84;21161;-73
2022/12/06 10:50:07;;;;;;;10.20;7.37;;;;;;;2.60;100.00;100445.65;1697668;84;21047;-73
2022/12/06 10:52:45;;;;;;;7.40;5.67;;;;;;;2.59;100.00;100443.94;1697304;84;21043;-73
2022/12/06 10:55:26;;;;;;;7.73;5.30;;;;;;;2.62;100.00;100442.62;1697565;84;21551;-73
2022/12/06 10:58:05;;;;;;;8.07;5.60;;;;;;;2.62;100.00;100442.19;1697882;84;21822;-73
2022/12/06 11:00:37;;;;;;;6.60;4.87;;;;;;;2.62;100.00;100441.34;1679042;84;21049;-73
2022/12/06 11:03:32;;;;;;;6.87;4.97;;;;;;;2.53;99.96;100437.06;1697854;84;21094;-73
2022/12/06 11:06:14;;;;;;;7.73;5.33;;;;;;;2.51;100.00;100436.64;1697416;84;21081;-72
2022/12/06 11:08:48;;;;;;;7.57;5.40;;;;;;;2.52;100.00;100428.85;1697756;84;21050;-73
2022/12/06 11:11:20;;;;;;;7.53;5.97;;;;;;;2.56;100.00;100421.52;1697736;84;22075;-72
2022/12/06 11:14:17;;;;;;;9.00;6.30;;;;;;;2.61;100.00;100419.78;1696713;84;21034;-73
2022/12/06 11:17:01;;;;;;;8.37;6.07;;;;;;;2.64;100.00;100409.41;1697755;84;21054;-73
2022/12/06 11:19:37;;;;;;;9.23;6.10;;;;;;;2.72;100.00;100405.95;1697838;84;21042;-73
2022/12/06 11:22:15;;;;;;;10.87;7.90;;;;;;;2.80;100.00;100408.03;1697825;84;21508;-73
2022/12/06 11:25:00;;;;;;;13.47;9.03;;;;;;;2.87;100.00;100404.11;1698024;84;21789;-72
2022/12/06 11:27:34;;;;;;;14.10;9.33;;;;;;;2.96;100.00;100395.87;1673060;84;21114;-72
2022/12/06 11:30:06;;;;;;;11.57;8.50;;;;;;;3.03;100.00;100396.27;1669645;84;21022;-73
2022/12/06 11:32:33;;;;;;;10.27;7.63;;;;;;;3.09;100.00;100396.22;1656710;85;21051;-73
2022/12/06 11:35:01;;;;;;;9.33;6.90;;;;;;;3.15;100.00;100399.20;1671250;84;21079;-72
2022/12/06 11:37:31;;;;;;;8.73;6.50;;;;;;;3.18;100.00;100403.92;1671329;84;21138;-72
2022/12/06 11:40:27;;;;;;;9.37;6.50;;;;;;;3.15;100.00;100400.06;1667076;84;21601;-73
2022/12/06 11:43:00;;;;;;;7.87;6.27;;;;;;;3.15;100.00;100398.77;1665355;85;21071;-73
2022/12/06 11:45:33;;;;;;;8.80;6.37;;;;;;;3.16;100.00;100394.44;1665601;85;21043;-73
2022/12/06 11:48:09;;;;;;;9.03;7.03;;;;;;;3.14;100.00;100386.70;1665152;85;21067;-74
2022/12/06 11:50:36;;;;;;;9.30;7.17;;;;;;;3.16;100.00;100382.78;1665717;85;21121;-70
2022/12/06 11:53:08;;;;;;;9.93;7.23;;;;;;;3.19;100.00;100382.35;1665689;85;21542;-73
2022/12/06 11:55:46;;;;;;;9.70;7.13;;;;;;;3.21;100.00;100373.26;1661006;85;21071;-72
2022/12/06 11:58:28;;;;;;;9.17;6.93;;;;;;;3.24;100.00;100371.53;1667699;85;21130;-74
2022/12/06 12:01:09;;;;;;;13.80;8.90;;;;;;;3.27;100.00;100368.91;1676541;85;21086;-89
2022/12/06 12:03:38;;;;;;;10.13;7.65;;;;;;;3.30;100.00;100367.59;1667753;85;21925;-73
2022/12/06 12:06:26;;;;;;;9.58;7.47;;;;;;;3.33;100.00;100364.12;1680867;85;21024;-72
2022/12/06 12:09:04;;;;;;;10.73;7.20;;;;;;;3.38;100.00;100366.65;1684981;85;21425;-74
2022/12/06 12:11:36;;;;;;;9.27;6.93;;;;;;;3.39;100.00;100368.39;1684966;84;21524;-74